createdAt,value
2017-08-23T00:00:34.261Z,1005.96
2017-08-23T00:01:35.679Z,1005.99
2017-08-23T00:02:37.107Z,1005.90
2017-08-23T00:03:38.534Z,1005.92
2017-08-23T00:04:39.955Z,1005.91
2017-08-23T00:05:41.387Z,1005.90
2017-08-23T00:06:42.807Z,1005.89
2017-08-23T00:07:44.231Z,1005.92
2017-08-23T00:08:45.651Z,1005.90
2017-08-23T00:09:47.071Z,1005.93
2017-08-23T00:10:48.490Z,1005.97
2017-08-23T00:11:49.917Z,1005.97
2017-08-23T00:12:51.344Z,1005.93
2017-08-23T00:13:52.764Z,1005.97
2017-08-23T00:14:54.201Z,1005.91
2017-08-23T00:15:55.621Z,1005.97
2017-08-23T00:16:57.064Z,1006.01
2017-08-23T00:17:58.479Z,1005.98
2017-08-23T00:18:59.901Z,1005.97
2017-08-23T00:20:01.336Z,1005.97
2017-08-23T00:21:02.754Z,1005.96
2017-08-23T00:22:04.175Z,1005.96
2017-08-23T00:23:05.600Z,1005.94
2017-08-23T00:24:07.026Z,1005.89
2017-08-23T00:25:08.446Z,1005.88
2017-08-23T00:26:09.871Z,1005.83
2017-08-23T00:27:11.295Z,1005.82
2017-08-23T00:28:12.726Z,1005.86
2017-08-23T00:29:14.151Z,1005.82
2017-08-23T00:30:15.574Z,1005.80
2017-08-23T00:31:16.997Z,1005.81
2017-08-23T00:32:18.425Z,1005.78
2017-08-23T00:33:19.861Z,1005.79
2017-08-23T00:34:21.287Z,1005.80
2017-08-23T00:35:22.714Z,1005.80
2017-08-23T00:36:24.143Z,1005.80
2017-08-23T00:37:25.565Z,1005.80
2017-08-23T00:38:26.991Z,1005.79
2017-08-23T00:39:28.411Z,1005.80
2017-08-23T00:40:29.835Z,1005.76
2017-08-23T00:41:31.259Z,1005.83
2017-08-23T00:42:32.678Z,1005.81
2017-08-23T00:43:34.098Z,1005.81
2017-08-23T00:44:35.521Z,1005.80
2017-08-23T00:45:36.936Z,1005.81
2017-08-23T00:46:38.362Z,1005.83
2017-08-23T00:47:39.784Z,1005.86
2017-08-23T00:48:41.207Z,1005.80
2017-08-23T00:49:42.628Z,1005.80
2017-08-23T00:50:44.055Z,1005.82
2017-08-23T00:51:45.484Z,1005.77
2017-08-23T00:52:46.907Z,1005.88
2017-08-23T00:53:48.327Z,1005.83
2017-08-23T00:54:49.751Z,1005.78
2017-08-23T00:55:51.172Z,1005.82
2017-08-23T00:56:52.596Z,1005.78
2017-08-23T00:57:54.026Z,1005.81
2017-08-23T00:58:55.450Z,1005.81
2017-08-23T00:59:56.876Z,1005.82
2017-08-23T01:00:58.304Z,1005.83
2017-08-23T01:01:59.726Z,1005.77
2017-08-23T01:03:01.151Z,1005.75
2017-08-23T01:04:02.570Z,1005.76
2017-08-23T01:05:03.989Z,1005.73
2017-08-23T01:06:05.412Z,1005.70
2017-08-23T01:07:06.840Z,1005.67
2017-08-23T01:08:08.265Z,1005.70
2017-08-23T01:09:09.740Z,1005.66
2017-08-23T01:10:11.161Z,1005.67
2017-08-23T01:11:12.583Z,1005.68
2017-08-23T01:12:14.031Z,1005.69
2017-08-23T01:13:15.504Z,1005.66
2017-08-23T01:14:16.927Z,1005.64
2017-08-23T01:15:18.350Z,1005.66
2017-08-23T01:16:19.779Z,1005.65
2017-08-23T01:17:21.218Z,1005.64
2017-08-23T01:18:22.640Z,1005.60
2017-08-23T01:19:24.056Z,1005.61
2017-08-23T01:20:25.477Z,1005.59
2017-08-23T01:21:26.899Z,1005.59
2017-08-23T01:22:28.327Z,1005.62
2017-08-23T01:23:29.752Z,1005.59
2017-08-23T01:24:31.196Z,1005.59
2017-08-23T01:25:32.602Z,1005.58
2017-08-23T01:26:34.025Z,1005.61
2017-08-23T01:27:35.451Z,1005.58
2017-08-23T01:28:36.868Z,1005.60
2017-08-23T01:29:38.299Z,1005.54
2017-08-23T01:30:39.716Z,1005.51
2017-08-23T01:31:41.140Z,1005.53
2017-08-23T01:32:42.563Z,1005.49
2017-08-23T01:33:43.992Z,1005.51
2017-08-23T01:34:45.404Z,1005.50
2017-08-23T01:35:46.822Z,1005.44
2017-08-23T01:36:48.239Z,1005.46
2017-08-23T01:37:49.661Z,1005.47
2017-08-23T01:38:51.088Z,1005.42
2017-08-23T01:39:52.508Z,1005.46
2017-08-23T01:40:53.931Z,1005.46
2017-08-23T01:41:55.352Z,1005.47
2017-08-23T01:42:56.773Z,1005.48
2017-08-23T01:43:58.198Z,1005.45
2017-08-23T01:44:59.621Z,1005.48
2017-08-23T01:46:01.063Z,1005.47
2017-08-23T01:47:02.481Z,1005.45
2017-08-23T01:48:03.904Z,1005.44
2017-08-23T01:49:05.332Z,1005.44
2017-08-23T01:50:06.755Z,1005.40
2017-08-23T01:51:08.176Z,1005.44
2017-08-23T01:52:09.601Z,1005.44
2017-08-23T01:53:11.023Z,1005.34
2017-08-23T01:54:12.442Z,1005.39
2017-08-23T01:55:13.868Z,1005.37
2017-08-23T01:56:15.292Z,1005.39
2017-08-23T01:57:16.709Z,1005.38
2017-08-23T01:58:18.232Z,1005.36
2017-08-23T01:59:19.657Z,1005.40
2017-08-23T02:00:21.081Z,1005.40
2017-08-23T02:01:22.502Z,1005.38
2017-08-23T02:02:23.931Z,1005.39
2017-08-23T02:03:26.191Z,1005.38
2017-08-23T02:04:27.744Z,1005.40
2017-08-23T02:05:29.171Z,1005.34
2017-08-23T02:06:30.589Z,1005.37
2017-08-23T02:07:32.011Z,1005.34
2017-08-23T02:08:33.504Z,1005.33
2017-08-23T02:09:34.926Z,1005.35
2017-08-23T02:10:36.355Z,1005.36
2017-08-23T02:11:37.808Z,1005.33
2017-08-23T02:12:39.270Z,1005.32
2017-08-23T02:13:40.689Z,1005.31
2017-08-23T02:14:42.106Z,1005.29
2017-08-23T02:15:43.530Z,1005.28
2017-08-23T02:16:44.957Z,1005.24
2017-08-23T02:17:46.383Z,1005.28
2017-08-23T02:18:47.811Z,1005.29
2017-08-23T02:19:49.232Z,1005.28
2017-08-23T02:20:50.652Z,1005.25
2017-08-23T02:21:52.066Z,1005.22
2017-08-23T02:22:53.497Z,1005.21
2017-08-23T02:23:55.459Z,1005.19
2017-08-23T02:24:56.871Z,1005.19
2017-08-23T02:25:58.301Z,1005.19
2017-08-23T02:26:59.719Z,1005.16
2017-08-23T02:28:01.143Z,1005.15
2017-08-23T02:29:02.562Z,1005.18
2017-08-23T02:30:03.984Z,1005.20
2017-08-23T02:31:05.415Z,1005.17
2017-08-23T02:32:06.842Z,1005.16
2017-08-23T02:33:08.255Z,1005.20
2017-08-23T02:34:09.676Z,1005.21
2017-08-23T02:35:11.098Z,1005.22
2017-08-23T02:36:12.515Z,1005.20
2017-08-23T02:37:13.959Z,1005.14
2017-08-23T02:38:15.366Z,1005.19
2017-08-23T02:39:16.791Z,1005.20
2017-08-23T02:40:18.224Z,1005.15
2017-08-23T02:41:19.648Z,1005.17
2017-08-23T02:42:21.079Z,1005.20
2017-08-23T02:43:22.502Z,1005.19
2017-08-23T02:44:23.919Z,1005.21
2017-08-23T02:45:25.346Z,1005.18
2017-08-23T02:46:26.771Z,1005.19
2017-08-23T02:47:28.194Z,1005.17
2017-08-23T02:48:29.618Z,1005.14
2017-08-23T02:49:31.036Z,1005.12
2017-08-23T02:50:32.462Z,1005.11
2017-08-23T02:51:33.890Z,1005.14
2017-08-23T02:52:35.308Z,1005.11
2017-08-23T02:53:36.736Z,1005.11
2017-08-23T02:54:38.160Z,1005.08
2017-08-23T02:55:39.589Z,1005.11
2017-08-23T02:56:41.019Z,1005.10
2017-08-23T02:57:42.439Z,1005.09
2017-08-23T02:58:43.860Z,1005.10
2017-08-23T02:59:45.285Z,1005.07
2017-08-23T03:00:46.704Z,1005.05
2017-08-23T03:01:48.147Z,1005.04
2017-08-23T03:02:49.583Z,1005.03
2017-08-23T03:03:50.999Z,1005.03
2017-08-23T03:04:52.422Z,1005.00
2017-08-23T03:05:53.845Z,1005.00
2017-08-23T03:06:55.268Z,1004.96
2017-08-23T03:07:56.688Z,1005.00
2017-08-23T03:08:58.118Z,1004.99
2017-08-23T03:09:59.541Z,1004.96
2017-08-23T03:11:00.965Z,1004.97
2017-08-23T03:12:02.389Z,1004.99
2017-08-23T03:13:03.817Z,1004.95
2017-08-23T03:14:05.929Z,1004.94
2017-08-23T03:15:07.367Z,1004.92
2017-08-23T03:16:08.786Z,1004.90
2017-08-23T03:17:10.206Z,1004.91
2017-08-23T03:18:11.646Z,1004.86
2017-08-23T03:19:13.147Z,1004.88
2017-08-23T03:20:14.571Z,1004.91
2017-08-23T03:21:15.989Z,1004.93
2017-08-23T03:22:17.414Z,1004.91
2017-08-23T03:23:18.846Z,1004.89
2017-08-23T03:24:20.272Z,1004.83
2017-08-23T03:25:21.712Z,1004.84
2017-08-23T03:26:23.162Z,1004.90
2017-08-23T03:27:24.588Z,1004.83
2017-08-23T03:28:26.011Z,1004.86
2017-08-23T03:29:27.433Z,1004.87
2017-08-23T03:30:28.856Z,1004.88
2017-08-23T03:31:30.286Z,1004.84
2017-08-23T03:32:31.708Z,1004.86
2017-08-23T03:33:33.130Z,1004.83
2017-08-23T03:34:34.560Z,1004.83
2017-08-23T03:35:35.984Z,1004.86
2017-08-23T03:36:37.405Z,1004.83
2017-08-23T03:37:38.828Z,1004.85
2017-08-23T03:38:40.250Z,1004.88
2017-08-23T03:39:41.670Z,1004.86
2017-08-23T03:40:43.089Z,1004.83
2017-08-23T03:41:44.511Z,1004.81
2017-08-23T03:42:45.925Z,1004.80
2017-08-23T03:43:48.175Z,1004.82
2017-08-23T03:44:49.596Z,1004.81
2017-08-23T03:45:51.010Z,1004.79
2017-08-23T03:46:52.433Z,1004.83
2017-08-23T03:47:53.854Z,1004.84
2017-08-23T03:48:55.281Z,1004.83
2017-08-23T03:49:56.699Z,1004.79
2017-08-23T03:50:58.118Z,1004.80
2017-08-23T03:51:59.541Z,1004.79
2017-08-23T03:53:00.967Z,1004.78
2017-08-23T03:54:02.395Z,1004.80
2017-08-23T03:55:03.819Z,1004.77
2017-08-23T03:56:05.247Z,1004.81
2017-08-23T03:57:06.668Z,1004.79
2017-08-23T03:58:08.090Z,1004.78
2017-08-23T03:59:09.511Z,1004.76
2017-08-23T04:00:10.931Z,1004.82
2017-08-23T04:01:12.357Z,1004.78
2017-08-23T04:02:13.831Z,1004.76
2017-08-23T04:03:15.252Z,1004.77
2017-08-23T04:04:16.668Z,1004.78
2017-08-23T04:05:18.088Z,1004.75
2017-08-23T04:06:19.595Z,1004.77
2017-08-23T04:07:21.025Z,1004.78
2017-08-23T04:08:22.446Z,1004.75
2017-08-23T04:09:23.862Z,1004.79
2017-08-23T04:10:25.312Z,1004.73
2017-08-23T04:11:26.736Z,1004.70
2017-08-23T04:12:28.155Z,1004.65
2017-08-23T04:13:29.591Z,1004.65
2017-08-23T04:14:31.011Z,1004.67
2017-08-23T04:15:32.448Z,1004.70
2017-08-23T04:16:33.871Z,1004.69
2017-08-23T04:17:35.292Z,1004.67
2017-08-23T04:18:36.712Z,1004.69
2017-08-23T04:19:38.130Z,1004.68
2017-08-23T04:20:39.549Z,1004.70
2017-08-23T04:21:40.971Z,1004.72
2017-08-23T04:22:42.406Z,1004.70
2017-08-23T04:23:43.823Z,1004.69
2017-08-23T04:24:45.241Z,1004.71
2017-08-23T04:25:46.654Z,1004.68
2017-08-23T04:26:48.080Z,1004.71
2017-08-23T04:27:49.502Z,1004.73
2017-08-23T04:28:50.920Z,1004.68
2017-08-23T04:29:52.345Z,1004.71
2017-08-23T04:30:53.764Z,1004.68
2017-08-23T04:31:55.190Z,1004.68
2017-08-23T04:32:56.611Z,1004.69
2017-08-23T04:33:58.036Z,1004.70
2017-08-23T04:34:59.451Z,1004.66
2017-08-23T04:36:00.877Z,1004.69
2017-08-23T04:37:02.298Z,1004.64
2017-08-23T04:38:03.721Z,1004.64
2017-08-23T04:39:05.145Z,1004.59
2017-08-23T04:40:06.569Z,1004.55
2017-08-23T04:41:07.992Z,1004.57
2017-08-23T04:42:09.417Z,1004.54
2017-08-23T04:43:10.848Z,1004.50
2017-08-23T04:44:12.271Z,1004.49
2017-08-23T04:45:13.704Z,1004.50
2017-08-23T04:46:15.125Z,1004.56
2017-08-23T04:47:16.541Z,1004.54
2017-08-23T04:48:17.968Z,1004.49
2017-08-23T04:49:19.392Z,1004.52
2017-08-23T04:50:20.824Z,1004.47
2017-08-23T04:51:22.260Z,1004.53
2017-08-23T04:52:23.687Z,1004.51
2017-08-23T04:53:25.107Z,1004.51
2017-08-23T04:54:26.542Z,1004.51
2017-08-23T04:55:27.967Z,1004.53
2017-08-23T04:56:29.398Z,1004.49
2017-08-23T04:57:30.829Z,1004.53
2017-08-23T04:58:32.249Z,1004.48
2017-08-23T04:59:33.676Z,1004.44
2017-08-23T05:00:35.106Z,1004.42
2017-08-23T05:01:36.530Z,1004.41
2017-08-23T05:02:37.952Z,1004.41
2017-08-23T05:03:39.449Z,1004.39
2017-08-23T05:04:40.874Z,1004.35
2017-08-23T05:05:42.289Z,1004.35
2017-08-23T05:06:43.721Z,1004.36
2017-08-23T05:07:45.152Z,1004.33
2017-08-23T05:08:46.578Z,1004.32
2017-08-23T05:09:47.998Z,1004.34
2017-08-23T05:10:49.421Z,1004.30
2017-08-23T05:11:50.846Z,1004.33
2017-08-23T05:12:52.276Z,1004.32
2017-08-23T05:13:53.691Z,1004.35
2017-08-23T05:14:55.115Z,1004.33
2017-08-23T05:15:56.538Z,1004.35
2017-08-23T05:16:57.974Z,1004.35
2017-08-23T05:17:59.404Z,1004.39
2017-08-23T05:19:00.841Z,1004.38
2017-08-23T05:20:02.282Z,1004.42
2017-08-23T05:21:03.721Z,1004.42
2017-08-23T05:22:05.147Z,1004.43
2017-08-23T05:23:06.575Z,1004.43
2017-08-23T05:24:08.015Z,1004.42
2017-08-23T05:25:09.436Z,1004.40
2017-08-23T05:26:10.867Z,1004.42
2017-08-23T05:27:12.291Z,1004.44
2017-08-23T05:28:13.717Z,1004.41
2017-08-23T05:29:15.138Z,1004.45
2017-08-23T05:30:16.561Z,1004.47
2017-08-23T05:31:17.992Z,1004.49
2017-08-23T05:32:19.413Z,1004.49
2017-08-23T05:33:20.842Z,1004.48
2017-08-23T05:34:22.270Z,1004.52
2017-08-23T05:35:23.698Z,1004.56
2017-08-23T05:36:25.122Z,1004.51
2017-08-23T05:37:26.543Z,1004.52
2017-08-23T05:38:27.969Z,1004.56
2017-08-23T05:39:29.385Z,1004.57
2017-08-23T05:40:30.822Z,1004.56
2017-08-23T05:41:32.254Z,1004.53
2017-08-23T05:42:33.680Z,1004.56
2017-08-23T05:43:35.108Z,1004.54
2017-08-23T05:44:36.536Z,1004.52
2017-08-23T05:45:37.968Z,1004.56
2017-08-23T05:46:39.390Z,1004.56
2017-08-23T05:47:40.813Z,1004.55
2017-08-23T05:48:42.234Z,1004.54
2017-08-23T05:49:43.665Z,1004.55
2017-08-23T05:50:45.095Z,1004.49
2017-08-23T05:51:46.520Z,1004.52
2017-08-23T05:52:47.942Z,1004.54
2017-08-23T05:53:49.362Z,1004.54
2017-08-23T05:54:50.817Z,1004.49
2017-08-23T05:55:52.214Z,1004.48
2017-08-23T05:56:53.648Z,1004.49
2017-08-23T05:57:55.073Z,1004.47
2017-08-23T05:58:56.505Z,1004.48
2017-08-23T05:59:57.928Z,1004.44
2017-08-23T06:00:59.434Z,1004.46
2017-08-23T06:02:00.864Z,1004.42
2017-08-23T06:03:02.285Z,1004.45
2017-08-23T06:04:03.714Z,1004.42
2017-08-23T06:05:05.144Z,1004.40
2017-08-23T06:06:06.592Z,1004.44
2017-08-23T06:07:08.008Z,1004.38
2017-08-23T06:08:09.689Z,1004.42
2017-08-23T06:09:11.119Z,1004.40
2017-08-23T06:10:12.545Z,1004.42
2017-08-23T06:11:13.977Z,1004.40
2017-08-23T06:12:15.415Z,1004.40
2017-08-23T06:13:16.833Z,1004.39
2017-08-23T06:14:18.266Z,1004.44
2017-08-23T06:15:19.696Z,1004.42
2017-08-23T06:16:21.126Z,1004.39
2017-08-23T06:17:22.546Z,1004.38
2017-08-23T06:18:23.970Z,1004.40
2017-08-23T06:19:25.415Z,1004.43
2017-08-23T06:20:26.855Z,1004.44
2017-08-23T06:21:28.283Z,1004.41
2017-08-23T06:22:29.707Z,1004.39
2017-08-23T06:23:31.155Z,1004.41
2017-08-23T06:24:32.581Z,1004.38
2017-08-23T06:25:34.018Z,1004.44
2017-08-23T06:26:35.456Z,1004.42
2017-08-23T06:27:36.879Z,1004.41
2017-08-23T06:28:38.304Z,1004.38
2017-08-23T06:29:39.740Z,1004.41
2017-08-23T06:30:41.167Z,1004.42
2017-08-23T06:31:42.592Z,1004.42
2017-08-23T06:32:44.020Z,1004.43
2017-08-23T06:33:45.706Z,1004.46
2017-08-23T06:34:47.124Z,1004.49
2017-08-23T06:35:48.566Z,1004.43
2017-08-23T06:36:50.047Z,1004.41
2017-08-23T06:37:51.476Z,1004.41
2017-08-23T06:38:52.910Z,1004.44
2017-08-23T06:39:54.347Z,1004.41
2017-08-23T06:40:55.777Z,1004.46
2017-08-23T06:41:57.208Z,1004.42
2017-08-23T06:42:58.636Z,1004.46
2017-08-23T06:44:00.057Z,1004.44
2017-08-23T06:45:01.483Z,1004.46
2017-08-23T06:46:02.905Z,1004.42
2017-08-23T06:47:04.347Z,1004.43
2017-08-23T06:48:05.776Z,1004.47
2017-08-23T06:49:07.206Z,1004.45
2017-08-23T06:50:08.626Z,1004.43
2017-08-23T06:51:10.053Z,1004.48
2017-08-23T06:52:11.607Z,1004.48
2017-08-23T06:53:13.063Z,1004.47
2017-08-23T06:54:14.492Z,1004.47
2017-08-23T06:55:15.920Z,1004.47
2017-08-23T06:56:17.340Z,1004.49
2017-08-23T06:57:18.766Z,1004.48
2017-08-23T06:58:20.198Z,1004.44
2017-08-23T06:59:21.626Z,1004.45
2017-08-23T07:00:23.164Z,1004.46
2017-08-23T07:01:24.594Z,1004.46
2017-08-23T07:02:26.042Z,1004.51
2017-08-23T07:03:27.480Z,1004.60
2017-08-23T07:04:28.902Z,1004.51
2017-08-23T07:05:30.338Z,1004.53
2017-08-23T07:06:31.762Z,1004.52
2017-08-23T07:07:33.259Z,1004.58
2017-08-23T07:08:34.677Z,1004.56
2017-08-23T07:09:36.104Z,1004.59
2017-08-23T07:10:37.541Z,1004.58
2017-08-23T07:11:38.969Z,1004.56
2017-08-23T07:12:40.395Z,1004.52
2017-08-23T07:13:41.828Z,1004.54
2017-08-23T07:14:43.251Z,1004.53
2017-08-23T07:15:44.680Z,1004.54
2017-08-23T07:16:46.109Z,1004.62
2017-08-23T07:17:47.542Z,1004.58
2017-08-23T07:18:48.966Z,1004.70
2017-08-23T07:19:50.389Z,1004.67
2017-08-23T07:20:51.824Z,1004.63
2017-08-23T07:21:53.251Z,1004.62
2017-08-23T07:22:54.676Z,1004.60
2017-08-23T07:23:56.107Z,1004.62
2017-08-23T07:24:57.532Z,1004.77
2017-08-23T07:25:58.956Z,1004.75
2017-08-23T07:27:00.386Z,1004.70
2017-08-23T07:28:01.815Z,1004.72
2017-08-23T07:29:03.243Z,1004.78
2017-08-23T07:30:04.685Z,1004.83
2017-08-23T07:31:06.112Z,1004.81
2017-08-23T07:32:08.174Z,1004.85
2017-08-23T07:33:09.600Z,1004.85
2017-08-23T07:34:11.027Z,1004.92
2017-08-23T07:35:12.458Z,1004.91
2017-08-23T07:36:13.892Z,1004.86
2017-08-23T07:37:15.315Z,1004.88
2017-08-23T07:38:16.743Z,1004.98
2017-08-23T07:39:18.176Z,1005.07
2017-08-23T07:40:19.610Z,1004.96
2017-08-23T07:41:21.046Z,1005.10
2017-08-23T07:42:22.475Z,1005.12
2017-08-23T07:43:23.906Z,1005.22
2017-08-23T07:44:25.341Z,1005.16
2017-08-23T07:45:26.767Z,1005.21
2017-08-23T07:46:28.203Z,1005.26
2017-08-23T07:47:29.626Z,1005.33
2017-08-23T07:48:31.049Z,1005.24
2017-08-23T07:49:32.475Z,1005.26
2017-08-23T07:50:33.906Z,1005.30
2017-08-23T07:51:35.336Z,1005.31
2017-08-23T07:52:36.757Z,1005.26
2017-08-23T07:53:38.187Z,1005.28
2017-08-23T07:54:39.650Z,1005.35
2017-08-23T07:55:41.100Z,1005.37
2017-08-23T07:56:42.535Z,1005.39
2017-08-23T07:57:43.962Z,1005.41
2017-08-23T07:58:45.385Z,1005.42
2017-08-23T07:59:46.814Z,1005.42
2017-08-23T08:00:48.246Z,1005.47
2017-08-23T08:01:49.680Z,1005.45
2017-08-23T08:02:51.112Z,1005.48
2017-08-23T08:03:52.534Z,1005.49
2017-08-23T08:04:53.972Z,1005.49
2017-08-23T08:05:55.396Z,1005.50
2017-08-23T08:06:56.822Z,1005.46
2017-08-23T08:07:58.251Z,1005.47
2017-08-23T08:08:59.685Z,1005.52
2017-08-23T08:10:01.128Z,1005.51
2017-08-23T08:11:02.555Z,1005.50
2017-08-23T08:12:03.980Z,1005.54
2017-08-23T08:13:05.420Z,1005.61
2017-08-23T08:14:06.856Z,1005.60
2017-08-23T08:15:08.286Z,1005.57
2017-08-23T08:16:09.713Z,1005.63
2017-08-23T08:17:11.148Z,1005.63
2017-08-23T08:18:12.587Z,1005.61
2017-08-23T08:19:14.020Z,1005.66
2017-08-23T08:20:15.449Z,1005.66
2017-08-23T08:21:16.873Z,1005.71
2017-08-23T08:22:18.297Z,1005.73
2017-08-23T08:23:19.728Z,1005.72
2017-08-23T08:24:21.150Z,1005.74
2017-08-23T08:25:22.586Z,1005.75
2017-08-23T08:26:24.009Z,1005.76
2017-08-23T08:27:25.451Z,1005.81
2017-08-23T08:28:26.876Z,1005.80
2017-08-23T08:29:28.310Z,1005.77
2017-08-23T08:30:29.736Z,1005.79
2017-08-23T08:31:31.166Z,1005.84
2017-08-23T08:32:32.609Z,1005.91
2017-08-23T08:33:34.042Z,1005.96
2017-08-23T08:34:35.470Z,1006.00
2017-08-23T08:35:36.909Z,1005.96
2017-08-23T08:36:38.328Z,1005.99
2017-08-23T08:37:39.777Z,1005.95
2017-08-23T08:38:41.215Z,1005.94
2017-08-23T08:39:42.643Z,1005.95
2017-08-23T08:40:44.074Z,1005.92
2017-08-23T08:41:45.504Z,1005.97
2017-08-23T08:42:46.937Z,1006.03
2017-08-23T08:43:48.383Z,1006.07
2017-08-23T08:44:49.808Z,1006.07
2017-08-23T08:45:51.240Z,1006.10
2017-08-23T08:46:52.674Z,1006.08
2017-08-23T08:47:54.100Z,1006.11
2017-08-23T08:48:55.524Z,1006.05
2017-08-23T08:49:56.960Z,1006.06
2017-08-23T08:50:58.393Z,1006.10
2017-08-23T08:51:59.828Z,1006.17
2017-08-23T08:53:01.258Z,1006.19
2017-08-23T08:54:02.683Z,1006.19
2017-08-23T08:55:04.137Z,1006.17
2017-08-23T08:56:05.571Z,1006.20
2017-08-23T08:57:07.640Z,1006.20
2017-08-23T08:58:10.260Z,1006.20
2017-08-23T08:59:11.699Z,1006.17
2017-08-23T09:00:13.129Z,1006.25
2017-08-23T09:01:14.934Z,1006.19
2017-08-23T09:02:16.364Z,1006.21
2017-08-23T09:03:17.794Z,1006.22
2017-08-23T09:04:19.226Z,1006.20
2017-08-23T09:05:20.656Z,1006.21
2017-08-23T09:06:22.086Z,1006.18
2017-08-23T09:07:23.526Z,1006.18
2017-08-23T09:08:24.957Z,1006.16
2017-08-23T09:09:26.389Z,1006.15
2017-08-23T09:10:27.818Z,1006.17
2017-08-23T09:11:29.267Z,1006.19
2017-08-23T09:12:30.687Z,1006.18
2017-08-23T09:13:32.118Z,1006.23
2017-08-23T09:14:33.546Z,1006.18
2017-08-23T09:15:34.988Z,1006.19
2017-08-23T09:16:36.416Z,1006.23
2017-08-23T09:17:37.847Z,1006.33
2017-08-23T09:18:39.277Z,1006.22
2017-08-23T09:19:40.711Z,1006.20
2017-08-23T09:20:42.140Z,1006.22
2017-08-23T09:21:43.566Z,1006.17
2017-08-23T09:22:45.007Z,1006.20
2017-08-23T09:23:46.435Z,1006.15
2017-08-23T09:24:47.866Z,1006.14
2017-08-23T09:25:49.304Z,1006.11
2017-08-23T09:26:50.735Z,1006.14
2017-08-23T09:27:52.162Z,1006.11
2017-08-23T09:28:53.605Z,1006.10
2017-08-23T09:29:55.047Z,1006.11
2017-08-23T09:30:56.474Z,1006.10
2017-08-23T09:31:57.902Z,1006.11
2017-08-23T09:32:59.340Z,1006.11
2017-08-23T09:34:00.784Z,1006.12
2017-08-23T09:35:02.213Z,1006.13
2017-08-23T09:36:03.645Z,1006.15
2017-08-23T09:37:05.080Z,1006.13
2017-08-23T09:38:06.517Z,1006.12
2017-08-23T09:39:07.945Z,1006.10
2017-08-23T09:40:09.389Z,1006.15
2017-08-23T09:41:10.821Z,1006.19
2017-08-23T09:42:12.265Z,1006.14
2017-08-23T09:43:13.777Z,1006.19
2017-08-23T09:44:15.205Z,1006.15
2017-08-23T09:45:16.639Z,1006.13
2017-08-23T09:46:18.071Z,1006.17
2017-08-23T09:47:19.504Z,1006.17
2017-08-23T09:48:20.935Z,1006.13
2017-08-23T09:49:22.365Z,1006.14
2017-08-23T09:50:24.402Z,1006.12
2017-08-23T09:51:25.842Z,1006.08
2017-08-23T09:52:27.267Z,1006.05
2017-08-23T09:53:28.696Z,1006.02
2017-08-23T09:54:30.128Z,1006.01
2017-08-23T09:55:31.562Z,1006.01
2017-08-23T09:56:32.992Z,1006.01
2017-08-23T09:57:34.432Z,1006.04
2017-08-23T09:58:35.866Z,1006.03
2017-08-23T09:59:37.307Z,1006.03
2017-08-23T10:00:38.742Z,1006.06
2017-08-23T10:01:40.172Z,1006.13
2017-08-23T10:02:41.608Z,1006.15
2017-08-23T10:03:43.038Z,1006.14
2017-08-23T10:04:44.467Z,1006.18
2017-08-23T10:05:45.900Z,1006.21
2017-08-23T10:06:47.338Z,1006.20
2017-08-23T10:07:48.768Z,1006.24
2017-08-23T10:08:50.205Z,1006.21
2017-08-23T10:09:51.631Z,1006.26
2017-08-23T10:10:53.071Z,1006.24
2017-08-23T10:11:54.507Z,1006.24
2017-08-23T10:12:55.948Z,1006.22
2017-08-23T10:13:57.387Z,1006.22
2017-08-23T10:14:58.823Z,1006.26
2017-08-23T10:16:00.260Z,1006.27
2017-08-23T10:17:01.697Z,1006.26
2017-08-23T10:18:03.134Z,1006.30
2017-08-23T10:19:04.566Z,1006.32
2017-08-23T10:20:05.999Z,1006.32
2017-08-23T10:21:07.471Z,1006.29
2017-08-23T10:22:08.903Z,1006.25
2017-08-23T10:23:10.341Z,1006.27
2017-08-23T10:24:11.780Z,1006.29
2017-08-23T10:25:13.209Z,1006.28
2017-08-23T10:26:14.654Z,1006.26
2017-08-23T10:27:16.087Z,1006.24
2017-08-23T10:28:17.521Z,1006.23
2017-08-23T10:29:18.955Z,1006.21
2017-08-23T10:30:20.395Z,1006.20
2017-08-23T10:31:21.825Z,1006.12
2017-08-23T10:32:23.271Z,1006.16
2017-08-23T10:33:24.710Z,1006.11
2017-08-23T10:34:26.137Z,1006.18
2017-08-23T10:35:27.572Z,1006.18
2017-08-23T10:36:29.000Z,1006.17
2017-08-23T10:37:30.441Z,1006.18
2017-08-23T10:38:31.883Z,1006.22
2017-08-23T10:39:33.311Z,1006.18
2017-08-23T10:40:34.745Z,1006.20
2017-08-23T10:41:36.194Z,1006.23
2017-08-23T10:42:37.634Z,1006.21
2017-08-23T10:43:39.068Z,1006.23
2017-08-23T10:44:40.504Z,1006.16
2017-08-23T10:45:41.948Z,1006.18
2017-08-23T10:46:43.382Z,1006.19
2017-08-23T10:47:44.820Z,1006.14
2017-08-23T10:48:46.251Z,1006.21
2017-08-23T10:49:47.692Z,1006.21
2017-08-23T10:50:49.136Z,1006.19
2017-08-23T10:51:50.574Z,1006.24
2017-08-23T10:52:52.007Z,1006.24
2017-08-23T10:53:53.443Z,1006.28
2017-08-23T10:54:54.875Z,1006.31
2017-08-23T10:55:56.313Z,1006.36
2017-08-23T10:56:57.751Z,1006.33
2017-08-23T10:57:59.199Z,1006.36
2017-08-23T10:59:00.637Z,1006.31
2017-08-23T11:00:02.076Z,1006.29
2017-08-23T11:01:03.501Z,1006.36
2017-08-23T11:02:04.930Z,1006.41
2017-08-23T11:03:06.366Z,1006.39
2017-08-23T11:04:07.803Z,1006.38
2017-08-23T11:05:09.303Z,1006.38
2017-08-23T11:06:10.733Z,1006.37
2017-08-23T11:07:12.183Z,1006.35
2017-08-23T11:08:13.615Z,1006.38
2017-08-23T11:09:15.056Z,1006.42
2017-08-23T11:10:16.489Z,1006.45
2017-08-23T11:11:17.927Z,1006.45
2017-08-23T11:12:19.363Z,1006.44
2017-08-23T11:13:20.799Z,1006.43
2017-08-23T11:14:22.241Z,1006.45
2017-08-23T11:15:23.673Z,1006.43
2017-08-23T11:16:25.183Z,1006.43
2017-08-23T11:17:26.621Z,1006.42
2017-08-23T11:18:28.058Z,1006.39
2017-08-23T11:19:29.540Z,1006.39
2017-08-23T11:20:30.969Z,1006.31
2017-08-23T11:21:32.406Z,1006.31
2017-08-23T11:22:33.841Z,1006.29
2017-08-23T11:23:35.307Z,1006.25
2017-08-23T11:24:36.741Z,1006.23
2017-08-23T11:25:38.172Z,1006.19
2017-08-23T11:26:39.608Z,1006.20
2017-08-23T11:27:41.084Z,1006.19
2017-08-23T11:28:42.517Z,1006.16
2017-08-23T11:29:43.960Z,1006.15
2017-08-23T11:30:45.420Z,1006.18
2017-08-23T11:31:46.860Z,1006.14
2017-08-23T11:32:48.295Z,1006.17
2017-08-23T11:33:49.726Z,1006.17
2017-08-23T11:34:51.169Z,1006.13
2017-08-23T11:35:52.613Z,1006.12
2017-08-23T11:36:54.045Z,1006.09
2017-08-23T11:37:55.478Z,1006.08
2017-08-23T11:38:56.924Z,1006.11
2017-08-23T11:39:58.359Z,1006.11
2017-08-23T11:40:59.793Z,1006.08
2017-08-23T11:42:01.238Z,1006.04
2017-08-23T11:43:02.709Z,1006.03
2017-08-23T11:44:04.150Z,1006.03
2017-08-23T11:45:05.600Z,1005.96
2017-08-23T11:46:07.046Z,1005.97
2017-08-23T11:47:08.484Z,1005.93
2017-08-23T11:48:09.968Z,1005.93
2017-08-23T11:49:11.576Z,1005.92
2017-08-23T11:50:13.020Z,1005.86
2017-08-23T11:51:14.448Z,1005.88
2017-08-23T11:52:15.899Z,1005.86
2017-08-23T11:53:17.345Z,1005.86
2017-08-23T11:54:18.799Z,1005.83
2017-08-23T11:55:20.229Z,1005.82
2017-08-23T11:56:21.670Z,1005.82
2017-08-23T11:57:23.104Z,1005.81
2017-08-23T11:58:24.543Z,1005.81
2017-08-23T11:59:25.967Z,1005.73
2017-08-23T12:00:27.397Z,1005.72
2017-08-23T12:01:28.841Z,1005.72
2017-08-23T12:02:30.275Z,1005.72
2017-08-23T12:03:31.711Z,1005.72
2017-08-23T12:04:33.148Z,1005.71
2017-08-23T12:05:34.588Z,1005.75
2017-08-23T12:06:36.014Z,1005.72
2017-08-23T12:07:37.468Z,1005.70
2017-08-23T12:08:38.898Z,1005.69
2017-08-23T12:09:40.350Z,1005.66
2017-08-23T12:10:41.785Z,1005.69
2017-08-23T12:11:43.230Z,1005.72
2017-08-23T12:12:44.761Z,1005.82
2017-08-23T12:13:46.190Z,1005.82
2017-08-23T12:14:47.841Z,1005.86
2017-08-23T12:15:49.262Z,1005.92
2017-08-23T12:16:50.706Z,1005.95
2017-08-23T12:17:52.146Z,1006.00
2017-08-23T12:18:53.582Z,1006.02
2017-08-23T12:19:55.037Z,1006.00
2017-08-23T12:20:56.474Z,1006.00
2017-08-23T12:21:57.910Z,1006.02
2017-08-23T12:22:59.344Z,1006.04